Time;durP1;ratioP1;P1;durP2;ratioP2;P2;SDS_P1;SDS_P2;PMS_P1;PMS_P2;Temp;Humidity;BMP_temperature;BMP_pressure;BME280_temperature;BME280_humidity;BME280_pressure;Samples;Min_cycle;Max_cycle;Signal;HPM_P1;HPM_P2
2022/01/24 00:01:58;;;;;;;20.98;12.80;;;6.80;99.90;;;6.99;84.62;102934.75;5057833;28;20220;-70
2022/01/24 00:04:27;;;;;;;27.63;13.57;;;6.80;99.90;;;6.91;84.87;102936.41;5056739;28;20177;-72
2022/01/24 00:06:55;;;;;;;26.73;12.85;;;6.80;99.90;;;6.93;84.43;102935.25;5057597;28;20299;-71
2022/01/24 00:09:24;;;;;;;29.30;12.77;;;6.80;99.90;;;7.03;84.29;102929.97;5056762;28;20204;-71
2022/01/24 00:12:03;;;;;;;23.45;12.38;;;6.80;99.90;;;7.05;83.75;102933.38;5057754;28;20217;-72
2022/01/24 00:17:29;;;;;;;18.48;10.52;;;6.90;99.90;;;6.96;84.20;102929.66;5052066;28;20277;-71
2022/01/24 00:28:15;;;;;;;26.40;12.50;;;7.00;99.90;;;6.97;84.23;102927.81;5055191;28;20196;-71
2022/01/24 00:30:44;;;;;;;32.50;16.55;;;6.90;99.90;;;7.16;83.63;102935.19;5055185;28;20247;-71
2022/01/24 00:33:13;;;;;;;22.63;13.77;;;6.90;99.90;;;7.14;83.32;102937.13;5055474;28;20204;-72
2022/01/24 00:35:42;;;;;;;22.90;14.10;;;7.00;99.90;;;7.17;83.18;102926.94;5068861;28;20237;-71
2022/01/24 00:38:10;;;;;;;20.63;12.52;;;7.00;99.90;;;7.13;82.94;102936.28;5071312;28;20233;-71
2022/01/24 00:40:41;;;;;;;20.42;12.45;;;7.00;99.90;;;7.03;83.98;102937.19;5068764;28;20188;-71
2022/01/24 00:43:19;;;;;;;21.02;14.07;;;7.00;99.90;;;7.06;84.08;102932.41;5068995;28;20189;-72
2022/01/24 00:45:58;;;;;;;20.17;11.93;;;6.90;99.90;;;7.01;83.90;102942.72;5058519;28;20217;-70
2022/01/24 00:48:38;;;;;;;18.85;12.15;;;6.90;99.90;;;7.13;83.89;102930.88;5058704;28;20178;-73
2022/01/24 00:54:03;;;;;;;18.75;11.95;;;7.00;99.90;;;7.07;83.62;102936.78;5055780;28;20192;-72
2022/01/24 00:56:31;;;;;;;20.20;11.60;;;6.90;99.90;;;7.05;83.77;102930.69;5057628;28;20195;-73
2022/01/24 00:58:59;;;;;;;23.48;14.55;;;6.90;99.90;;;7.10;83.59;102935.69;5062784;28;20658;-71
2022/01/24 01:01:29;;;;;;;21.42;12.77;;;6.90;99.90;;;7.16;83.24;102925.28;5059921;28;20215;-71
2022/01/24 01:03:57;;;;;;;19.92;12.40;;;7.00;99.90;;;7.13;83.03;102925.50;5061836;28;20181;-71
2022/01/24 01:06:26;;;;;;;27.17;15.40;;;7.00;99.90;;;7.02;83.68;102933.63;5061470;28;20195;-71
2022/01/24 01:20:00;;;;;;;22.77;15.45;;;6.90;99.90;;;6.95;83.87;102933.31;5058117;28;20284;-71
2022/01/24 01:22:28;;;;;;;19.30;13.05;;;6.90;99.90;;;7.08;83.73;102932.25;5055987;28;20308;-72
2022/01/24 01:24:57;;;;;;;24.35;13.80;;;6.90;99.90;;;7.10;83.59;102936.56;5054866;28;20562;-72
2022/01/24 01:27:32;;;;;;;24.85;15.45;;;6.90;99.90;;;7.06;84.13;102931.56;5053418;28;20252;-72
2022/01/24 01:30:05;;;;;;;22.40;15.05;;;6.90;99.90;;;7.13;83.42;102935.41;5054987;28;20200;-71
2022/01/24 01:32:50;;;;;;;26.60;14.05;;;7.00;99.90;;;7.01;83.97;102929.25;5054292;28;20696;-71
2022/01/24 01:35:34;;;;;;;22.27;14.85;;;6.90;99.90;;;6.97;83.93;102930.50;5054334;28;20271;-71
2022/01/24 01:54:53;;;;;;;25.20;14.13;;;6.80;99.90;;;6.85;84.29;102926.13;5053714;28;20545;-71
2022/01/24 01:57:24;;;;;;;23.55;16.33;;;6.80;99.90;;;6.78;84.26;102927.63;5051560;28;20220;-71
2022/01/24 01:59:52;;;;;;;24.77;14.70;;;6.80;99.90;;;6.81;84.15;102935.47;5053330;28;20188;-71
2022/01/24 02:02:20;;;;;;;24.67;15.15;;;6.80;99.90;;;6.63;84.51;102935.16;5053291;28;20201;-71
2022/01/24 02:04:50;;;;;;;21.40;13.65;;;6.70;99.90;;;6.65;84.30;102937.69;5053323;28;20173;-72
2022/01/24 02:07:18;;;;;;;24.63;14.10;;;6.60;99.90;;;6.67;84.49;102938.44;5053442;28;20268;-71
2022/01/24 02:09:47;;;;;;;22.23;14.18;;;6.60;99.90;;;6.65;83.83;102924.25;5053375;28;20563;-72
2022/01/24 02:12:18;;;;;;;19.92;12.90;;;6.60;99.90;;;6.59;84.27;102927.44;5053204;28;20209;-71
2022/01/24 02:14:52;;;;;;;19.17;13.15;;;6.50;99.90;;;6.63;84.33;102927.09;5053321;28;20193;-71
2022/01/24 02:17:29;;;;;;;20.00;13.00;;;6.60;99.90;;;6.68;83.19;102926.69;5053294;28;20192;-72
2022/01/24 02:20:13;;;;;;;20.88;11.95;;;6.60;99.90;;;6.61;83.73;102922.78;5053068;28;20176;-73
2022/01/24 02:22:49;;;;;;;17.08;12.90;;;6.60;99.90;;;6.63;83.99;102926.22;5035091;28;20282;-72
2022/01/24 02:25:26;;;;;;;22.13;13.63;;;6.50;99.90;;;6.55;84.29;102919.63;5034934;28;20200;-71
2022/01/24 02:27:59;;;;;;;23.52;15.27;;;6.50;99.90;;;6.42;83.99;102918.94;5053307;28;20184;-73
2022/01/24 02:30:50;;;;;;;19.70;12.93;;;6.50;99.90;;;6.52;84.29;102913.66;5052623;28;20188;-70
2022/01/24 02:33:18;;;;;;;18.08;12.35;;;6.50;99.90;;;6.52;83.95;102914.53;5053164;28;20192;-72
2022/01/24 02:35:48;;;;;;;19.60;13.30;;;6.50;99.90;;;6.47;84.30;102916.72;5052974;28;20824;-70
2022/01/24 02:38:28;;;;;;;16.23;11.43;;;6.40;99.90;;;6.60;84.09;102910.31;5052989;28;20832;-71
2022/01/24 02:49:16;;;;;;;17.27;12.63;;;6.40;99.90;;;6.41;84.81;102917.22;5052667;28;20185;-71
2022/01/24 02:51:47;;;;;;;14.70;12.00;;;6.40;99.90;;;6.40;84.23;102920.91;5052288;28;20569;-71
2022/01/24 02:54:27;;;;;;;16.42;11.32;;;6.40;99.90;;;6.29;84.25;102917.38;5052599;28;20248;-71
2022/01/24 02:56:55;;;;;;;14.50;10.38;;;6.30;99.90;;;6.41;84.99;102913.69;5052327;28;20184;-71
2022/01/24 02:59:24;;;;;;;15.82;10.23;;;6.30;99.90;;;6.30;83.97;102914.56;5034791;28;20209;-71
2022/01/24 03:01:54;;;;;;;15.15;10.00;;;6.30;99.90;;;6.21;83.98;102915.31;5052023;28;20624;-72
2022/01/24 03:04:23;;;;;;;15.02;10.82;;;6.20;99.90;;;6.11;84.77;102906.28;5052177;28;20172;-70
2022/01/24 03:06:51;;;;;;;14.43;10.80;;;6.10;99.90;;;6.03;84.95;102906.91;5052032;28;20181;-70
2022/01/24 03:09:22;;;;;;;15.85;10.70;;;6.10;99.90;;;6.17;84.50;102907.63;5052052;28;20255;-72
2022/01/24 03:12:02;;;;;;;19.05;12.25;;;6.10;99.90;;;6.32;84.18;102903.69;5052170;28;20558;-71
2022/01/24 03:14:34;;;;;;;18.38;12.00;;;6.20;99.90;;;6.25;83.92;102903.31;5052290;28;20176;-71
2022/01/24 03:17:05;;;;;;;14.07;11.10;;;6.20;99.90;;;6.13;84.10;102901.66;5055913;28;20550;-71
2022/01/24 03:19:34;;;;;;;15.40;11.40;;;6.20;99.90;;;6.22;84.48;102900.03;5059074;28;20212;-72
2022/01/24 03:22:03;;;;;;;17.10;11.48;;;6.20;99.90;;;6.18;84.37;102894.06;5058468;28;20235;-72
2022/01/24 03:24:32;;;;;;;16.77;12.20;;;6.10;99.90;;;6.14;84.49;102892.59;5053017;28;20189;-70
2022/01/24 03:27:02;;;;;;;16.65;11.50;;;6.10;99.90;;;6.34;84.45;102890.97;5052170;28;20207;-70
2022/01/24 03:29:30;;;;;;;16.25;10.30;;;6.20;99.90;;;6.33;84.55;102900.03;5051855;28;20173;-71
2022/01/24 03:31:58;;;;;;;18.67;11.40;;;6.30;99.90;;;6.25;84.25;102892.56;5051981;28;20634;-71
2022/01/24 03:34:27;;;;;;;14.10;10.77;;;6.20;99.90;;;6.49;84.06;102898.63;5051604;28;20191;-71
2022/01/24 03:36:55;;;;;;;17.52;12.55;;;6.40;99.90;;;6.47;84.00;102900.59;5051820;28;20271;-71
2022/01/24 03:39:23;;;;;;;24.35;15.68;;;6.40;99.90;;;6.53;83.85;102910.81;5051226;28;20777;-73
2022/01/24 03:41:52;;;;;;;20.65;15.23;;;6.40;99.90;;;6.39;84.23;102908.41;5050436;28;20273;-72
2022/01/24 03:44:23;;;;;;;33.72;21.30;;;6.40;99.90;;;6.36;84.19;102914.06;5051602;28;20275;-71
2022/01/24 03:47:12;;;;;;;31.38;17.50;;;6.30;99.90;;;6.49;84.56;102913.91;5051899;28;20252;-72
2022/01/24 03:49:48;;;;;;;27.63;17.98;;;6.40;99.90;;;6.34;84.67;102921.38;5035218;28;20185;-70
2022/01/24 03:52:20;;;;;;;33.30;18.63;;;6.40;99.90;;;6.31;84.91;102921.66;5054739;28;20208;-71
2022/01/24 03:54:50;;;;;;;26.33;20.25;;;6.30;99.90;;;6.26;84.96;102921.16;5056554;28;20173;-71
2022/01/24 03:57:21;;;;;;;28.33;19.08;;;6.30;99.90;;;6.27;85.04;102919.34;5056211;28;20177;-71
2022/01/24 03:59:51;;;;;;;25.00;19.60;;;6.30;99.90;;;6.30;85.27;102919.06;5037610;28;20254;-71
2022/01/24 04:02:24;;;;;;;26.90;20.30;;;6.30;99.90;;;6.37;85.22;102918.47;5055631;28;20619;-71
2022/01/24 04:04:54;;;;;;;29.70;18.77;;;6.30;99.90;;;6.53;84.55;102918.88;5037808;28;20196;-70
2022/01/24 04:07:22;;;;;;;26.50;18.25;;;6.40;99.90;;;6.55;84.50;102914.25;5054195;28;20223;-72
2022/01/24 04:09:51;;;;;;;24.92;17.20;;;6.40;99.90;;;6.62;84.23;102916.44;5054675;28;20252;-70
2022/01/24 04:12:24;;;;;;;23.65;16.17;;;6.50;99.90;;;6.46;84.29;102917.72;5056359;28;20228;-71
2022/01/24 04:15:27;;;;;;;24.20;18.42;;;6.40;99.90;;;6.30;84.59;102919.94;5037576;28;20199;-71
2022/01/24 04:18:13;;;;;;;26.73;16.65;;;6.40;99.90;;;6.38;84.55;102916.63;5054585;28;20284;-71
2022/01/24 04:23:28;;;;;;;27.80;18.67;;;6.30;99.90;;;6.37;84.29;102910.41;5054243;28;20197;-71
2022/01/24 04:25:56;;;;;;;24.48;17.45;;;6.30;99.90;;;6.29;84.56;102914.69;5055683;28;20173;-71
2022/01/24 04:28:25;;;;;;;26.70;17.05;;;6.30;99.90;;;6.37;84.26;102921.16;5055241;28;20193;-71
2022/01/24 04:30:55;;;;;;;23.45;17.40;;;6.30;99.90;;;6.36;84.57;102916.75;5037254;28;20216;-71
2022/01/24 04:33:23;;;;;;;32.95;20.90;;;6.30;99.90;;;6.45;84.42;102916.00;5054922;28;20184;-70
2022/01/24 04:35:57;;;;;;;25.08;17.63;;;6.40;99.90;;;6.46;83.83;102915.00;5053646;28;20201;-71
2022/01/24 04:38:27;;;;;;;22.73;16.42;;;6.40;99.90;;;6.39;84.22;102915.66;5055065;28;20185;-71
2022/01/24 04:41:02;;;;;;;24.75;17.55;;;6.40;99.90;;;6.22;84.72;102922.41;5055157;28;20209;-70
2022/01/24 04:43:45;;;;;;;29.42;19.63;;;6.30;99.90;;;6.16;85.20;102917.50;5053498;28;20204;-71
2022/01/24 04:46:30;;;;;;;33.50;17.38;;;6.20;99.90;;;6.11;85.25;102919.72;5054584;28;20282;-70
2022/01/24 04:51:56;;;;;;;29.45;18.80;;;6.10;99.90;;;6.30;85.27;102927.16;5139720;22;20322;-71
2022/01/24 04:54:40;;;;;;;22.50;16.83;;;6.20;99.90;;;6.24;84.99;102924.97;5079613;28;20233;-70
2022/01/24 04:57:13;;;;;;;26.67;19.08;;;6.20;99.90;;;6.19;84.76;102928.03;5057875;28;20610;-71
2022/01/24 04:59:47;;;;;;;24.67;17.00;;;6.20;99.90;;;6.28;84.80;102932.66;5075980;28;20232;-71
2022/01/24 05:02:24;;;;;;;24.65;17.60;;;6.20;99.90;;;6.23;84.94;102926.81;5063674;28;20627;-70
2022/01/24 05:04:56;;;;;;;21.02;15.75;;;6.20;99.90;;;6.15;84.86;102923.88;5037909;28;20287;-72
2022/01/24 05:07:26;;;;;;;20.63;15.30;;;6.10;99.90;;;6.11;84.88;102925.09;5056027;28;20256;-70
2022/01/24 05:10:07;;;;;;;28.55;19.25;;;6.10;99.90;;;6.06;85.30;102933.53;5055405;28;20181;-70
2022/01/24 05:21:22;;;;;;;29.92;18.77;;;6.10;99.90;;;6.05;85.09;102931.81;5065208;28;20219;-71
2022/01/24 05:23:47;;;;;;;24.38;15.90;;;5.90;99.90;;;5.91;85.00;102928.53;5064284;28;20192;-71
2022/01/24 05:26:15;;;;;;;24.90;18.98;;;5.90;99.90;;;5.86;85.22;102936.06;5037304;28;20283;-71
2022/01/24 05:28:44;;;;;;;23.20;17.63;;;5.90;99.90;;;5.86;85.01;102931.56;5055302;28;20177;-71
2022/01/24 05:31:12;;;;;;;23.15;16.85;;;5.80;99.90;;;5.89;84.77;102931.34;5054985;28;20236;-70
2022/01/24 05:33:42;;;;;;;25.67;17.95;;;5.80;99.90;;;6.04;84.81;102940.88;5054541;28;20427;-70
2022/01/24 05:36:14;;;;;;;24.65;17.65;;;5.90;99.90;;;6.23;83.64;102940.25;5055498;28;20189;-69
2022/01/24 05:38:42;;;;;;;21.83;16.10;;;6.10;99.90;;;5.94;84.33;102933.69;5063903;28;20227;-69
2022/01/24 05:41:11;;;;;;;25.52;18.40;;;6.00;99.90;;;6.06;84.37;102944.28;5062298;28;20232;-71
2022/01/24 05:43:39;;;;;;;21.27;15.27;;;6.00;99.90;;;6.12;84.10;102948.31;5064719;28;20267;-70
2022/01/24 05:46:07;;;;;;;25.00;16.85;;;6.10;99.90;;;6.19;83.59;102948.69;5073329;28;20196;-70
2022/01/24 05:48:36;;;;;;;30.27;17.55;;;6.10;99.90;;;6.24;83.05;102943.81;5061067;28;20216;-69
2022/01/24 05:51:08;;;;;;;23.83;16.92;;;6.10;99.90;;;6.18;82.54;102942.47;5074782;28;20184;-69
2022/01/24 05:53:37;;;;;;;29.33;18.13;;;6.10;99.90;;;6.19;82.72;102951.38;5074683;28;20172;-71
2022/01/24 05:56:05;;;;;;;26.42;17.38;;;6.10;99.90;;;5.98;82.80;102940.50;5074620;28;20184;-70
2022/01/24 05:58:33;;;;;;;27.63;18.00;;;6.00;99.90;;;6.14;83.18;102946.38;5070569;28;20187;-70
2022/01/24 06:01:02;;;;;;;31.33;18.55;;;6.00;99.90;;;6.00;82.86;102941.25;5074347;28;20196;-69
2022/01/24 06:03:30;;;;;;;26.98;19.27;;;6.00;99.90;;;5.90;82.95;102942.97;5074304;28;20176;-70
2022/01/24 06:05:59;;;;;;;23.75;15.85;;;5.90;99.90;;;5.85;82.87;102940.63;5074782;28;20184;-70
2022/01/24 06:08:29;;;;;;;27.60;18.75;;;5.90;99.90;;;5.98;83.06;102951.25;5058627;28;20208;-70
2022/01/24 06:10:58;;;;;;;20.35;16.60;;;5.90;99.90;;;5.93;82.78;102953.47;5055433;28;20192;-70
2022/01/24 06:13:27;;;;;;;20.88;15.55;;;5.90;99.90;;;5.82;82.42;102962.34;5073782;28;20202;-71
2022/01/24 06:15:55;;;;;;;26.15;15.10;;;5.80;99.90;;;5.82;82.96;102953.41;5074401;28;20188;-70
2022/01/24 06:18:25;;;;;;;19.00;14.60;;;5.80;99.90;;;5.79;82.61;102959.91;5061314;28;20193;-69
2022/01/24 06:20:54;;;;;;;20.27;15.80;;;5.80;99.90;;;5.85;83.06;102956.75;5053952;28;20212;-70
2022/01/24 06:23:22;;;;;;;20.55;15.20;;;5.80;99.90;;;5.91;83.06;102966.16;5054255;28;20181;-69
2022/01/24 06:25:52;;;;;;;21.45;16.63;;;5.90;99.90;;;5.98;82.98;102962.00;5054340;28;20239;-70
2022/01/24 06:28:20;;;;;;;19.27;15.02;;;5.90;99.90;;;6.00;82.92;102965.44;5064934;28;20188;-70
2022/01/24 06:30:49;;;;;;;21.48;15.98;;;5.90;99.90;;;6.06;83.47;102964.94;5065148;28;20177;-67
2022/01/24 06:33:17;;;;;;;24.75;16.52;;;5.90;99.90;;;5.92;82.69;102960.66;5065031;28;20188;-69
2022/01/24 06:35:46;;;;;;;18.63;15.07;;;5.90;99.90;;;5.99;83.16;102958.34;5065770;28;20215;-71
2022/01/24 06:38:14;;;;;;;20.83;15.20;;;5.90;99.90;;;6.06;82.39;102956.88;5064162;28;20197;-69
2022/01/24 06:40:43;;;;;;;21.52;14.70;;;6.00;99.90;;;6.02;82.83;102963.47;5053280;28;20685;-70
2022/01/24 06:43:13;;;;;;;19.75;15.18;;;6.00;99.90;;;5.83;82.62;102963.19;5053720;28;20181;-70
2022/01/24 06:45:41;;;;;;;20.83;13.60;;;5.90;99.90;;;5.64;83.33;102963.78;5061496;28;20637;-70
2022/01/24 06:48:10;;;;;;;21.30;14.43;;;5.70;99.90;;;5.77;83.75;102963.66;5066762;28;20192;-70
2022/01/24 06:50:38;;;;;;;20.85;14.07;;;5.70;99.90;;;5.73;84.24;102972.94;5062992;28;20185;-71
2022/01/24 06:53:57;;;;;;;21.63;15.75;;;5.70;99.90;;;5.65;83.89;102970.88;5058033;28;20217;-70
2022/01/24 06:56:28;;;;;;;19.50;13.98;;;5.70;99.90;;;5.86;84.17;102979.06;5054810;28;20192;-70
2022/01/24 06:58:58;;;;;;;19.48;15.45;;;5.70;99.90;;;5.93;83.35;102974.97;5055936;28;20185;-71
2022/01/24 07:01:29;;;;;;;21.77;14.70;;;5.80;99.90;;;5.99;83.54;102985.22;5074187;28;20211;-72
2022/01/24 07:03:58;;;;;;;22.92;16.00;;;5.90;99.90;;;5.96;83.73;102988.13;5076531;28;20195;-71
2022/01/24 07:06:26;;;;;;;21.35;15.55;;;5.90;99.90;;;6.05;83.13;102988.25;5077060;28;20196;-71
2022/01/24 07:08:55;;;;;;;17.77;14.15;;;5.90;99.90;;;5.90;83.22;102988.66;5078119;28;20222;-72
2022/01/24 07:11:23;;;;;;;25.35;14.23;;;5.90;99.90;;;5.96;83.52;102989.00;5075455;28;20233;-71
2022/01/24 07:13:53;;;;;;;22.42;13.90;;;5.90;99.90;;;5.73;83.93;102989.94;5055889;28;20181;-71
2022/01/24 07:16:25;;;;;;;14.73;11.30;;;5.80;99.90;;;5.87;83.23;102988.88;5054240;28;20267;-71
2022/01/24 07:19:02;;;;;;;15.25;12.00;;;5.80;99.90;;;5.68;83.85;102998.34;5070032;28;20554;-70
2022/01/24 07:21:32;;;;;;;19.23;12.82;;;5.70;99.90;;;5.73;83.97;102994.44;5073808;28;20683;-70
2022/01/24 07:24:01;;;;;;;23.30;13.85;;;5.70;99.90;;;5.85;84.22;102990.81;5060992;28;20612;-71
2022/01/24 07:26:30;;;;;;;19.67;14.05;;;5.80;99.90;;;5.84;83.83;102998.00;5072540;28;20184;-71
2022/01/24 07:28:58;;;;;;;24.30;13.70;;;5.80;99.90;;;5.91;84.11;102998.41;5071420;28;20555;-70
2022/01/24 07:31:29;;;;;;;19.80;15.43;;;5.80;99.90;;;6.01;83.45;103000.25;5073317;28;20430;-70
2022/01/24 07:33:59;;;;;;;17.33;13.68;;;5.90;99.90;;;5.95;83.27;102994.53;5073165;28;20544;-70
2022/01/24 07:36:28;;;;;;;20.60;14.02;;;5.90;99.90;;;6.08;83.44;102995.25;5072792;28;20180;-70
2022/01/24 07:38:56;;;;;;;19.50;13.23;;;6.00;99.90;;;5.87;83.97;102999.63;5056944;28;20177;-71
2022/01/24 07:41:27;;;;;;;16.83;11.23;;;5.90;99.90;;;5.85;83.73;103004.25;5052694;28;20216;-71
2022/01/24 07:43:57;;;;;;;17.77;11.30;;;5.80;99.90;;;5.97;84.39;102993.41;5052984;28;20173;-72
2022/01/24 07:46:26;;;;;;;16.02;12.25;;;5.80;99.90;;;6.11;83.71;103000.38;5052638;28;20216;-71
2022/01/24 07:48:55;;;;;;;16.85;11.50;;;5.90;99.90;;;5.97;83.73;103004.16;5054110;28;20251;-72
2022/01/24 07:51:24;;;;;;;15.77;10.57;;;5.90;99.90;;;6.16;83.26;102998.16;5053737;28;20227;-71
2022/01/24 07:53:55;;;;;;;13.65;10.35;;;6.00;99.90;;;6.17;82.56;103002.56;5053040;28;20240;-70
2022/01/24 07:56:26;;;;;;;16.65;11.35;;;6.00;99.90;;;6.25;83.12;102991.19;5053167;28;20545;-71
2022/01/24 07:58:59;;;;;;;13.90;10.10;;;6.10;99.90;;;6.25;82.00;102992.06;5070890;28;20199;-72
2022/01/24 08:01:28;;;;;;;14.88;9.10;;;6.10;99.90;;;6.29;81.74;102988.16;5072613;28;20228;-73
2022/01/24 08:04:00;;;;;;;15.05;11.20;;;6.20;99.90;;;6.23;81.31;102983.28;5058774;28;20242;-70
2022/01/24 08:06:30;;;;;;;20.85;11.77;;;6.20;99.90;;;6.28;81.83;102993.66;5052678;28;20189;-71
2022/01/24 08:08:59;;;;;;;13.05;10.02;;;6.20;99.90;;;6.47;81.60;102997.44;5060358;28;20192;-71
2022/01/24 08:11:28;;;;;;;12.60;9.90;;;6.30;99.90;;;6.25;81.04;103000.13;5069566;28;20572;-70
2022/01/24 08:13:57;;;;;;;14.50;10.45;;;6.20;99.90;;;6.10;81.54;103006.72;5072143;28;20199;-71
2022/01/24 08:16:25;;;;;;;14.30;10.13;;;6.20;99.90;;;6.11;81.87;103001.22;5068509;28;20195;-71
2022/01/24 08:18:55;;;;;;;22.38;11.23;;;6.10;99.90;;;6.31;81.65;103002.31;5060250;28;20197;-71
2022/01/24 08:21:25;;;;;;;20.70;12.88;;;6.20;99.90;;;6.33;82.00;103000.38;5064616;28;20219;-70
2022/01/24 08:23:54;;;;;;;15.40;10.50;;;6.20;99.90;;;6.57;80.79;103002.91;5063334;28;20192;-71
2022/01/24 08:26:24;;;;;;;20.98;18.63;;;6.30;99.90;;;6.55;80.74;103010.25;5056941;28;20188;-71
2022/01/24 08:28:52;;;;;;;15.02;10.32;;;6.40;99.90;;;6.65;79.91;103004.97;5054844;28;20243;-72
2022/01/24 08:31:20;;;;;;;19.17;11.32;;;6.50;99.90;;;6.69;79.79;103011.81;5060116;28;20550;-72
2022/01/24 08:33:49;;;;;;;21.83;13.18;;;6.60;99.90;;;6.62;80.51;103010.63;5066270;28;20267;-73
2022/01/24 08:36:18;;;;;;;18.60;12.68;;;6.50;99.90;;;6.85;80.06;103014.94;5069566;28;20278;-72
2022/01/24 08:38:50;;;;;;;13.32;10.63;;;6.70;99.90;;;6.80;79.72;103011.78;5067286;28;20201;-70
2022/01/24 08:41:26;;;;;;;13.43;9.98;;;6.70;99.90;;;6.87;80.07;103018.38;5075205;28;20275;-71
2022/01/24 08:44:09;;;;;;;14.05;8.60;;;6.70;99.90;;;6.64;80.42;103008.63;5065705;28;20187;-71
2022/01/24 08:46:43;;;;;;;13.00;9.52;;;6.50;99.90;;;6.63;80.89;103007.81;5066748;28;20250;-71
2022/01/24 08:49:12;;;;;;;13.48;9.45;;;6.50;99.90;;;7.15;79.20;103006.16;5056199;28;20242;-70
2022/01/24 08:51:40;;;;;;;13.63;8.30;;;6.80;99.90;;;6.91;78.67;103001.00;5061183;28;20223;-71
2022/01/24 08:54:31;;;;;;;11.70;9.10;;;6.80;99.90;;;6.90;78.95;103004.66;5068650;28;20720;-72
2022/01/24 08:56:59;;;;;;;15.15;10.32;;;6.80;99.90;;;6.82;80.02;103007.16;5062908;28;20191;-70
2022/01/24 08:59:28;;;;;;;13.32;9.73;;;6.60;99.90;;;6.90;78.11;103005.53;5060261;28;20196;-70
2022/01/24 09:01:57;;;;;;;14.25;10.90;;;6.70;99.90;;;6.92;78.87;103008.09;5062821;28;20299;-71
2022/01/24 09:04:31;;;;;;;14.75;10.30;;;6.70;99.90;;;7.13;78.50;103006.28;5063009;28;20188;-70
2022/01/24 09:07:04;;;;;;;20.88;12.50;;;6.90;99.90;;;7.09;78.74;103014.75;5060136;28;20226;-71
2022/01/24 09:09:41;;;;;;;16.30;9.95;;;6.90;99.90;;;7.25;77.94;103005.28;5066850;28;20202;-70
2022/01/24 09:12:12;;;;;;;15.23;11.85;;;7.00;99.90;;;7.20;78.60;103002.13;5061160;28;20215;-71
2022/01/24 09:14:44;;;;;;;20.90;17.17;;;7.00;99.90;;;7.34;77.42;103015.28;5055080;28;20657;-71
2022/01/24 09:17:13;;;;;;;23.73;19.23;;;7.10;99.90;;;7.37;77.19;103008.75;5055013;28;20315;-69
2022/01/24 09:19:42;;;;;;;31.65;23.92;;;7.20;99.90;;;7.23;78.14;103007.22;5064753;28;20188;-71
2022/01/24 09:22:33;;;;;;;20.60;17.23;;;7.10;99.90;;;7.39;77.35;103001.41;5074695;28;20220;-70
2022/01/24 09:25:06;;;;;;;14.55;9.43;;;7.20;99.90;;;7.20;76.61;103007.50;5074920;28;20192;-71
2022/01/24 09:28:02;;;;;;;13.52;10.00;;;7.20;99.90;;;7.37;76.24;102996.13;5074910;28;20592;-72
2022/01/24 09:30:31;;;;;;;10.75;9.55;;;7.30;99.90;;;7.49;76.10;103002.34;5064275;28;20191;-71
2022/01/24 09:33:00;;;;;;;13.43;8.80;;;7.30;99.90;;;7.53;76.09;102997.53;5070122;28;20211;-69
2022/01/24 09:35:29;;;;;;;12.80;9.73;;;7.40;99.90;;;7.50;76.07;102997.81;5071675;28;20275;-70
2022/01/24 09:37:58;;;;;;;14.60;10.52;;;7.40;99.90;;;7.39;76.50;102996.03;5062904;28;20181;-71
2022/01/24 09:40:27;;;;;;;13.57;9.82;;;7.30;99.90;;;7.56;76.33;102994.56;5068515;28;20273;-70
2022/01/24 09:42:56;;;;;;;14.90;10.30;;;7.40;99.90;;;7.83;75.94;102997.59;5073983;28;20210;-70
2022/01/24 09:45:24;;;;;;;13.25;9.55;;;7.60;99.90;;;7.54;74.41;102989.31;5074501;28;20180;-70
2022/01/24 09:47:54;;;;;;;11.00;9.25;;;7.50;99.90;;;7.58;74.88;102996.16;5067537;28;20299;-70
2022/01/24 09:50:23;;;;;;;14.85;10.20;;;7.50;99.90;;;7.63;75.67;102998.44;5061584;28;20327;-70
2022/01/24 09:52:53;;;;;;;13.10;9.95;;;7.50;99.90;;;7.68;75.93;102997.06;5073902;28;20204;-71
2022/01/24 09:55:25;;;;;;;13.05;8.77;;;7.50;99.90;;;7.73;75.15;102999.38;5074713;28;20275;-70
2022/01/24 09:57:55;;;;;;;14.48;10.25;;;7.50;99.90;;;7.70;74.99;103000.47;5067497;28;20192;-71
2022/01/24 10:00:27;;;;;;;13.23;9.73;;;7.60;99.90;;;7.60;75.18;102999.56;5073097;28;20184;-71
2022/01/24 10:02:57;;;;;;;13.73;9.23;;;7.50;99.90;;;7.75;75.07;102997.38;5073680;28;20297;-71
2022/01/24 10:05:54;;;;;;;11.23;9.82;;;7.60;99.90;;;7.50;75.01;103003.19;5073748;28;20169;-72
2022/01/24 10:08:35;;;;;;;12.32;9.13;;;7.50;99.90;;;7.07;76.51;103001.41;5073853;28;20207;-71
2022/01/24 10:11:06;;;;;;;13.45;9.77;;;7.20;99.90;;;7.17;76.11;103002.34;5053843;28;20281;-72
2022/01/24 10:16:35;;;;;;;14.45;11.23;;;7.10;99.90;;;7.13;75.92;102995.53;5053885;28;20192;-72
2022/01/24 10:19:10;;;;;;;14.55;9.00;;;7.10;99.90;;;7.32;75.94;102997.50;5037885;28;20191;-72
2022/01/24 10:22:02;;;;;;;12.73;8.60;;;7.20;99.90;;;7.43;75.30;102992.94;5053483;28;20267;-72
2022/01/24 10:24:37;;;;;;;16.35;8.27;;;7.20;99.90;;;7.57;74.92;102988.19;5053734;28;20548;-72
2022/01/24 10:27:13;;;;;;;13.77;9.85;;;7.30;99.90;;;7.49;75.04;102979.91;5054833;28;20212;-72
2022/01/24 10:29:48;;;;;;;13.85;9.77;;;7.30;99.90;;;7.50;74.33;102981.63;5064738;28;20176;-72
2022/01/24 10:32:36;;;;;;;16.83;10.90;;;7.40;99.90;;;7.65;75.46;102978.44;5073162;28;20277;-72
2022/01/24 10:35:29;;;;;;;13.95;10.77;;;7.40;99.90;;;7.94;74.73;102984.00;5070289;28;20537;-73
2022/01/24 10:38:26;;;;;;;15.18;10.65;;;7.60;99.90;;;7.99;73.79;102979.06;5070855;28;20180;-74
2022/01/24 10:41:09;;;;;;;11.13;8.77;;;7.80;99.90;;;7.30;74.46;102978.81;5053338;28;20181;-74
2022/01/24 10:43:40;;;;;;;15.02;10.65;;;7.50;99.90;;;7.43;74.58;102974.06;5052996;28;20197;-74
2022/01/24 10:46:26;;;;;;;15.23;12.45;;;7.40;99.90;;;7.62;74.25;102964.41;5059357;28;20547;-72
2022/01/24 10:49:04;;;;;;;14.52;10.15;;;7.40;99.90;;;7.54;74.15;102966.91;5057523;28;20241;-73
2022/01/24 10:51:38;;;;;;;16.50;11.40;;;7.40;99.90;;;7.74;73.59;102963.34;5070919;22;20220;-70
2022/01/24 10:54:07;;;;;;;14.30;10.80;;;7.50;99.90;;;7.68;72.71;102958.47;5071866;28;20195;-70
2022/01/24 10:56:40;;;;;;;16.05;10.82;;;7.60;99.90;;;7.65;73.34;102964.16;5071020;28;20363;-70
2022/01/24 10:59:17;;;;;;;15.85;10.27;;;7.60;99.90;;;7.64;72.83;102962.44;5071251;28;20212;-69
2022/01/24 11:01:52;;;;;;;14.15;10.02;;;7.50;99.90;;;7.78;71.79;102954.84;5051611;28;20190;-71
2022/01/24 11:04:24;;;;;;;13.02;10.57;;;7.60;99.90;;;7.54;72.37;102957.00;5051182;28;20239;-71
2022/01/24 11:06:56;;;;;;;13.98;9.80;;;7.40;99.90;;;7.70;72.00;102961.88;5047169;28;20189;-71
2022/01/24 11:09:27;;;;;;;12.52;9.52;;;7.50;99.90;;;7.75;72.66;102959.63;5055870;28;20205;-71
2022/01/24 11:11:59;;;;;;;12.55;9.50;;;7.50;99.90;;;7.51;71.75;102951.00;5051754;28;20471;-71
2022/01/24 11:14:31;;;;;;;10.85;7.85;;;7.40;99.90;;;7.45;72.28;102957.78;5048737;28;20719;-71
2022/01/24 11:17:02;;;;;;;11.20;9.02;;;7.40;99.90;;;7.28;72.81;102947.59;5044165;28;20315;-71
2022/01/24 11:19:36;;;;;;;12.38;9.90;;;7.20;84.50;;;7.16;73.73;102946.81;5052352;28;20694;-70
2022/01/24 11:22:07;;;;;;;11.32;9.73;;;7.10;99.90;;;7.14;73.63;102946.06;5051279;28;20196;-71
2022/01/24 11:24:42;;;;;;;12.20;8.13;;;7.10;99.90;;;7.03;73.77;102943.41;5051163;28;20622;-72
2022/01/24 11:27:32;;;;;;;11.13;7.82;;;7.10;99.90;;;7.01;74.22;102937.34;5050948;28;20574;-72
2022/01/24 11:30:07;;;;;;;10.18;8.43;;;7.00;99.90;;;6.94;74.69;102946.91;5046368;28;20197;-72
2022/01/24 11:32:46;;;;;;;11.90;8.15;;;6.90;99.90;;;6.84;75.08;102932.50;5031098;28;20555;-71
2022/01/24 11:35:29;;;;;;;14.38;7.63;;;6.90;99.90;;;6.92;74.33;102938.13;5031168;28;20223;-71
2022/01/24 11:37:59;;;;;;;24.02;8.90;;;6.90;99.90;;;7.10;74.33;102931.16;5039027;28;20270;-70
2022/01/24 11:40:43;;;;;;;8.95;7.07;;;6.90;99.90;;;6.97;72.88;102925.94;5050898;28;20185;-70
2022/01/24 11:43:27;;;;;;;8.73;6.60;;;6.90;1.00;;;6.93;73.66;102939.78;5051441;28;20821;-70